This is the latest recevied weather packets stored in our database for station/object W4CKA. If no packets are shown the sender has not sent any weather packets the latest 10 day(s).
| Time | Temp. | Humidity | Pressure | Rain* | Wind** | Luminosity | Snow |
|---|---|---|---|---|---|---|---|
| 1787529677 | 21.11° C | 87% | 1057.4 hPa | 0 mm | - | 4 W/m² | - |
| 1787529078 | 21.67° C | 84% | 1057.2 hPa | 0 mm | - | 9 W/m² | - |
| 1787528474 | 22.22° C | 79% | 1057.3 hPa | 0 mm | - | 13 W/m² | - |
| 1787527872 | 22.78° C | 81% | 1057.3 hPa | 0 mm | - | 15 W/m² | - |
| 1787527269 | 23.33° C | 78% | 1057.4 hPa | 0 mm | - | 27 W/m² | - |
| 1787526666 | 23.89° C | 75% | 1057.4 hPa | 0 mm | - | 31 W/m² | - |
| 1787526064 | 24.44° C | 74% | 1057.4 hPa | 0 mm | - | 43 W/m² | - |
| 1787525460 | 25° C | 69% | 1057.4 hPa | 0 mm | - | 34 W/m² | - |
| 1787524857 | 26.67° C | 58% | 1057.6 hPa | 0 mm | - | 111 W/m² | - |
| 1787524253 | 25.56° C | 68% | 1057.6 hPa | 0 mm | - | 141 W/m² | - |
| 1787523649 | 25° C | 68% | 1057.5 hPa | 0 mm | - | 79 W/m² | - |
| 1787523044 | 25.56° C | 68% | 1057.7 hPa | 0 mm | - | 45 W/m² | - |
| 1787522441 | 27.22° C | 63% | 1057.5 hPa | 0 mm | - | 177 W/m² | - |
| 1787521836 | 25° C | 69% | 1057.6 hPa | 0 mm | - | 228 W/m² | - |
| 1787521236 | 26.11° C | 61% | 1057.7 hPa | 0 mm | - | 65 W/m² | - |
| 1787520633 | 27.78° C | 58% | 1057.6 hPa | 0 mm | - | 84 W/m² | - |
| 1787520030 | 27.78° C | 58% | 1057.7 hPa | 0 mm | - | 343 W/m² | - |
| 1787519426 | 26.67° C | 60% | 1057.6 hPa | 0 mm | - | 89 W/m² | - |
| 1787518822 | 28.33° C | 56% | 1057.5 hPa | 0 mm | - | 114 W/m² | - |
| 1787518218 | 27.22° C | 60% | 1057.5 hPa | 0 mm | - | 428 W/m² | - |
| 1787517615 | 28.89° C | 53% | 1057.6 hPa | 0 mm | - | 406 W/m² | - |
| 1787517012 | 28.89° C | 54% | 1057.7 hPa | 0 mm | - | 418 W/m² | - |
| 1787516408 | 28.33° C | 54% | 1057.8 hPa | 0 mm | - | 491 W/m² | - |
| 1787515802 | 28.33° C | 52% | 1057.8 hPa | 0 mm | - | 575 W/m² | - |
| 1787515198 | 28.89° C | 58% | 1057.7 hPa | 0 mm | - | 650 W/m² | - |
* Rain latest hour (hover to see other rain measurements)
** Current wind speed in m/s (hover to see current wind gust speed)